Nyk Orpheus — 7JDN — position and weather

sailwx.info

Track history (hours):
 
Tides and Currents Weather Stations Pressure Air Temp Water Temp Dewpoint Dewpoint Depression Visibility Wind Speed Wind Dir Waves Ship Positions

Nyk Orpheus

Last reported at 2014-Oct-21 06:30 UTC. Time now 2014-Oct-21 15:19 UTC.
Position N 36°22' E 014°26'.

Length 336 m; draft 12.1 m.

Type: Other ship. MMSI: 432657000.

Date/timePositionNaut miles runAvg speedWind from/ knotsBaromVisibWave heightAir tempDewpointWater temp
2014-Oct-21 06:30N 36°22' E 014°26'2217.9
2014-Oct-21 05:18N 36°29' E 014°00'1317.8
2014-Oct-21 04:34N 36°33' E 013°45'1817.5
2014-Oct-21 03:31N 36°39' E 013°23'2317.3
2014-Oct-21 02:10N 36°46' E 012°55'16117.8
2014-Oct-20 17:07N 37°49' E 009°49'1017.8
2014-Oct-20 16:33N 37°51' E 009°36'2017.8
2014-Oct-20 15:26N 37°56' E 009°12'1617.9
2014-Oct-20 14:32N 37°59' E 008°52'1818.0
2014-Oct-20 13:31N 38°03' E 008°29'4217.7
2014-Oct-20 11:08N 38°11' E 007°37'1417.7
2014-Oct-20 10:20N 38°14' E 007°19'1417.3
2014-Oct-20 09:33N 38°17' E 007°02'7617.6
2014-Oct-20 05:14N 38°33' E 005°28'1216.9
2014-Oct-20 04:31N 38°35' E 005°13'2217.4
2014-Oct-20 03:14N 38°39' E 004°44'1317.7
2014-Oct-20 02:31N 38°42' E 004°28'3517.9
2014-Oct-20 00:32N 38°50' E 003°44'1818.2
2014-Oct-19 23:33N 38°53' E 003°21'1717.4
2014-Oct-19 22:33N 38°57' E 002°60'1817.5
2014-Oct-19 21:31N 39°01' E 002°37'3417.4
2014-Oct-19 19:34N 39°09' E 001°54'1917.1
2014-Oct-19 18:27N 39°13' E 001°30'2017.6
2014-Oct-19 17:20N 39°15' E 001°05'6416.9
2014-Oct-19 13:33N 39°25' W 000°17'3 2.6
2014-Oct-19 12:32N 39°27' W 000°19'0 0.0
2014-Oct-19 11:32N 39°27' W 000°19'0 0.0
2014-Oct-19 10:32N 39°27' W 000°19'0 0.0
2014-Oct-19 09:32N 39°27' W 000°19'0 0.0
2014-Oct-19 08:32N 39°27' W 000°19'0 0.0
2014-Oct-19 07:32N 39°27' W 000°19'0 0.0
2014-Oct-19 06:32N 39°27' W 000°19'0 0.0
2014-Oct-19 05:32N 39°27' W 000°19'0 0.0
2014-Oct-19 04:32N 39°27' W 000°19'0 0.0
2014-Oct-19 03:32N 39°27' W 000°19'0 0.0
2014-Oct-19 02:32N 39°27' W 000°19'0 0.0
2014-Oct-19 01:32N 39°27' W 000°19'0 0.0
2014-Oct-19 00:32N 39°27' W 000°19'0 0.0
2014-Oct-18 23:32N 39°27' W 000°19'0 0.0
2014-Oct-18 22:32N 39°27' W 000°19'0 0.0
2014-Oct-18 21:32N 39°27' W 000°19'0 0.0
2014-Oct-18 20:32N 39°27' W 000°19'0 0.0
2014-Oct-18 19:32N 39°27' W 000°19'1 1.4
2014-Oct-18 18:33N 39°26' W 000°18'3 3.1
2014-Oct-18 17:33N 39°24' W 000°14'2 1.9
2014-Oct-18 16:33N 39°25' W 000°12'2017.6
2014-Oct-18 15:25N 39°28' E 000°14'1719.9
2014-Oct-18 14:33N 39°36' E 000°33'2220.2
2014-Oct-18 13:30N 39°50' E 000°55'2120.7
2014-Oct-18 12:29N 40°07' E 001°09'2021.3
2014-Oct-18 11:33N 40°24' E 001°24'2121.4
2014-Oct-18 10:34N 40°42' E 001°38'2221.3
2014-Oct-18 09:30N 41°00' E 001°56'2118.0
2014-Oct-18 08:20N 41°18' E 002°10'3 3.5
2014-Oct-18 07:31N 41°21' E 002°10'0 0.0
2014-Oct-18 06:31N 41°21' E 002°10'0 0.0
2014-Oct-18 05:31N 41°21' E 002°10'0 0.0
2014-Oct-18 04:31N 41°21' E 002°10'0 0.0
2014-Oct-18 03:25N 41°21' E 002°10'0 0.0
2014-Oct-18 02:31N 41°21' E 002°10'0 0.0
2014-Oct-18 01:16N 41°21' E 002°10'0 0.0
2014-Oct-18 00:28N 41°21' E 002°10'0 0.0
2014-Oct-17 23:31N 41°21' E 002°10'0 0.0
2014-Oct-17 22:31N 41°21' E 002°10'0 0.0
2014-Oct-17 21:25N 41°21' E 002°10'0 0.0
2014-Oct-17 20:10N 41°21' E 002°10'0 0.0
2014-Oct-17 19:22N 41°21' E 002°10'0 0.0
2014-Oct-17 18:31N 41°21' E 002°10'0 0.0
2014-Oct-17 17:28N 41°21' E 002°10'0 0.0
2014-Oct-17 16:13N 41°21' E 002°10'0 0.0
2014-Oct-17 15:28N 41°21' E 002°10'0 0.0
2014-Oct-17 14:31N 41°21' E 002°10'0 0.0
2014-Oct-17 13:32N 41°21' E 002°10'4 4.2
2014-Oct-17 12:33N 41°17' E 002°12'1 1.0
2014-Oct-17 11:32N 41°17' E 002°13'1212.1
2014-Oct-17 10:33N 41°21' E 002°28'2221.7
2014-Oct-17 09:32N 41°32' E 002°54'2121.5
2014-Oct-17 08:33N 41°45' E 003°16'2221.7
2014-Oct-17 07:33N 42°00' E 003°36'2922.0
2014-Oct-17 06:15N 42°20' E 004°04'3721.8
2014-Oct-17 04:33N 42°49' E 004°36'2121.3
2014-Oct-17 03:33N 43°06' E 004°53'1515.0
2014-Oct-17 02:33N 43°20' E 004°58'7 7.0
2014-Oct-17 01:33N 43°25' E 004°51'0 0.1
2014-Oct-17 00:31N 43°25' E 004°51'0 0.0
2014-Oct-16 23:31N 43°25' E 004°51'0 0.0
2014-Oct-16 22:31N 43°25' E 004°51'0 0.0
2014-Oct-16 21:31N 43°25' E 004°51'0 0.0
2014-Oct-16 20:31N 43°25' E 004°51'0 0.0
2014-Oct-16 19:31N 43°25' E 004°51'0 0.0
2014-Oct-16 18:31N 43°25' E 004°51'0 0.0
2014-Oct-16 17:31N 43°25' E 004°51'0 0.0
2014-Oct-16 16:31N 43°25' E 004°51'0 0.0
2014-Oct-16 15:31N 43°25' E 004°51'0 0.0
2014-Oct-16 14:31N 43°25' E 004°51'0 0.0
2014-Oct-16 13:32N 43°25' E 004°51'0 0.0
2014-Oct-16 12:31N 43°25' E 004°51'0 0.0
2014-Oct-16 11:31N 43°25' E 004°51'0 0.0
2014-Oct-16 10:31N 43°25' E 004°51'0 0.0
2014-Oct-16 09:31N 43°25' E 004°51'0 0.0
2014-Oct-16 08:31N 43°25' E 004°51'0 0.0
2014-Oct-16 07:31N 43°25' E 004°51'0 0.0
2014-Oct-16 06:28N 43°25' E 004°51'0 0.0
2014-Oct-16 05:31N 43°25' E 004°51'0 0.0
2014-Oct-16 04:31N 43°25' E 004°51'0 0.0
2014-Oct-16 03:31N 43°25' E 004°51'0 0.0
2014-Oct-16 02:31N 43°25' E 004°51'0 0.0
2014-Oct-16 01:31N 43°25' E 004°51'0 0.0
2014-Oct-16 00:31N 43°25' E 004°51'0 0.0
2014-Oct-15 23:31N 43°25' E 004°51'0 0.0
2014-Oct-15 22:31N 43°25' E 004°51'0 0.0
2014-Oct-15 21:31N 43°25' E 004°51'0 0.0
2014-Oct-15 20:31N 43°25' E 004°51'0 0.0
2014-Oct-15 19:31N 43°25' E 004°51'0 0.0
2014-Oct-15 18:31N 43°25' E 004°51'0 0.0
2014-Oct-15 17:31N 43°25' E 004°51'0 0.0
2014-Oct-15 16:31N 43°25' E 004°51'0 0.0
2014-Oct-15 15:31N 43°25' E 004°51'0 0.0
2014-Oct-15 14:31N 43°25' E 004°51'0 0.0
2014-Oct-15 13:31N 43°25' E 004°51'0 0.0
2014-Oct-15 12:31N 43°25' E 004°51'0 0.0
2014-Oct-15 11:31N 43°25' E 004°51'0 0.0
2014-Oct-15 10:31N 43°25' E 004°51'0 0.0
2014-Oct-15 09:31N 43°25' E 004°51'0 0.0
2014-Oct-15 08:31N 43°25' E 004°51'0 0.0
2014-Oct-15 07:31N 43°25' E 004°51'0 0.0
2014-Oct-15 06:31N 43°25' E 004°51'0 0.0
2014-Oct-15 05:31N 43°25' E 004°51'0 0.0
2014-Oct-15 04:31N 43°25' E 004°51'0 0.0
2014-Oct-15 03:31N 43°25' E 004°51'0 0.0
2014-Oct-15 02:31N 43°25' E 004°51'0 0.0
2014-Oct-15 01:31N 43°25' E 004°51'0 0.0
2014-Oct-15 00:28N 43°25' E 004°51'0 0.0
2014-Oct-14 23:31N 43°25' E 004°51'0 0.0
2014-Oct-14 22:31N 43°25' E 004°51'0 0.0
2014-Oct-14 21:31N 43°25' E 004°51'0 0.0
2014-Oct-14 20:31N 43°25' E 004°51'0 0.0
2014-Oct-14 19:31N 43°25' E 004°51'0 0.0
2014-Oct-14 18:31N 43°25' E 004°51'0 0.0
2014-Oct-14 17:31N 43°25' E 004°51'0 0.0
2014-Oct-14 16:31N 43°25' E 004°51'0 0.0
2014-Oct-14 15:31N 43°25' E 004°51'0 0.0
2014-Oct-14 14:31N 43°25' E 004°51'0 0.0
2014-Oct-14 13:31N 43°25' E 004°51'0 0.0
2014-Oct-14 12:31N 43°25' E 004°51'0 0.0
2014-Oct-14 11:31N 43°25' E 004°51'0 0.1
2014-Oct-14 10:33N 43°25' E 004°51'5 4.9
2014-Oct-14 09:33N 43°23' E 004°57'8 7.9
2014-Oct-14 08:33N 43°16' E 005°01'1110.7
2014-Oct-14 07:33N 43°06' E 005°08'1312.7
2014-Oct-14 06:33N 43°02' E 005°24'1712.8
2014-Oct-14 05:15N 42°56' E 005°45'912.9
2014-Oct-14 04:33N 42°52' E 005°57'1313.0
2014-Oct-14 03:33N 42°52' E 006°15'1312.9
2014-Oct-14 02:33N 42°53' E 006°32'1313.2
2014-Oct-14 01:33N 43°01' E 006°47'1313.3
2014-Oct-14 00:33N 43°09' E 007°01'1413.4
2014-Oct-13 23:32N 43°18' E 007°16'1413.6
2014-Oct-13 22:32N 43°26' E 007°31'1313.7
2014-Oct-13 21:33N 43°34' E 007°45'3413.7
2014-Oct-13 19:06N 43°55' E 008°22'813.8
2014-Oct-13 18:32N 44°01' E 008°28'1413.9
2014-Oct-13 17:33N 44°13' E 008°38'1312.5
2014-Oct-13 16:31N 44°25' E 008°45'2 1.9
2014-Oct-13 15:33N 44°25' E 008°48'0 0.0
2014-Oct-13 14:33N 44°25' E 008°48'0 0.0
2014-Oct-13 13:33N 44°25' E 008°48'0 0.0
2014-Oct-13 12:33N 44°25' E 008°48'0 0.0
2014-Oct-13 11:33N 44°25' E 008°48'0 0.0
2014-Oct-13 10:33N 44°25' E 008°48'0 0.0
2014-Oct-13 09:33N 44°25' E 008°48'0 0.0
2014-Oct-13 08:33N 44°25' E 008°48'0 0.0
2014-Oct-13 07:33N 44°25' E 008°48'0 0.0
2014-Oct-13 06:33N 44°25' E 008°48'0 0.0
2014-Oct-13 05:33N 44°25' E 008°48'0 0.0
2014-Oct-13 04:32N 44°25' E 008°48'0 0.0
2014-Oct-13 03:33N 44°25' E 008°48'0 0.0
2014-Oct-13 02:33N 44°25' E 008°48'0 0.0
2014-Oct-13 01:33N 44°25' E 008°48'0 0.0
2014-Oct-13 00:33N 44°25' E 008°48'0 0.0
2014-Oct-12 23:33N 44°25' E 008°48'0 0.0
2014-Oct-12 22:33N 44°25' E 008°48'0 0.0
2014-Oct-12 21:33N 44°25' E 008°48'0 0.0
2014-Oct-12 20:31N 44°25' E 008°48'0 0.0
2014-Oct-12 19:32N 44°25' E 008°48'0 0.0
2014-Oct-12 18:33N 44°25' E 008°48'0 0.0
2014-Oct-12 17:33N 44°25' E 008°48'0 0.0
2014-Oct-12 16:33N 44°25' E 008°48'0 0.0
2014-Oct-12 15:32N 44°25' E 008°48'0 0.0
2014-Oct-12 14:32N 44°25' E 008°48'0 0.0
2014-Oct-12 13:32N 44°25' E 008°48'0 0.0
2014-Oct-12 11:05N 44°25' E 008°48'0 0.0
2014-Oct-12 10:27N 44°25' E 008°48'0 0.0
2014-Oct-12 09:33N 44°25' E 008°48'0 0.0
2014-Oct-12 08:33N 44°25' E 008°48'0 0.0
2014-Oct-12 07:33N 44°25' E 008°48'0 0.0
2014-Oct-12 06:33N 44°25' E 008°48'0 0.0
2014-Oct-12 05:33N 44°25' E 008°48'0 0.0
2014-Oct-12 04:32N 44°25' E 008°48'0 0.0
2014-Oct-12 03:33N 44°25' E 008°48'0 0.0
2014-Oct-12 02:33N 44°25' E 008°48'0 0.0
2014-Oct-12 01:33N 44°25' E 008°48'0 0.0
2014-Oct-12 00:33N 44°25' E 008°48'0 0.0
2014-Oct-11 23:33N 44°25' E 008°48'0 0.0
2014-Oct-11 22:33N 44°25' E 008°48'0 0.0
2014-Oct-11 21:33N 44°25' E 008°48'0 0.0
2014-Oct-11 20:33N 44°25' E 008°48'0 0.0
2014-Oct-11 19:33N 44°25' E 008°48'0 0.0
2014-Oct-11 18:33N 44°25' E 008°48'0 0.0
2014-Oct-11 17:32N 44°25' E 008°48'0 0.0
2014-Oct-11 16:33N 44°25' E 008°48'0 0.0
2014-Oct-11 15:33N 44°25' E 008°48'0 0.0
2014-Oct-11 14:33N 44°25' E 008°48'0 0.0
2014-Oct-11 13:33N 44°25' E 008°48'0 0.0
2014-Oct-11 12:33N 44°25' E 008°48'0 0.0
2014-Oct-11 11:33N 44°25' E 008°48'0 0.0
2014-Oct-11 10:33N 44°25' E 008°48'0 0.0
2014-Oct-11 09:33N 44°25' E 008°48'0 0.0
2014-Oct-11 08:33N 44°25' E 008°48'0 0.0
2014-Oct-11 07:33N 44°25' E 008°48'0 0.0
2014-Oct-11 06:32N 44°25' E 008°48'  
Track history (hours):
 
Tides and Currents Weather Stations Pressure Air Temp Water Temp Dewpoint Dewpoint Depression Visibility Wind Speed Wind Dir Waves Ship Positions

Nyk Orpheus

Last reported at 2014-Oct-21 06:30 UTC. Time now 2014-Oct-21 15:19 UTC.
Position N 36°22' E 014°26'.

Length 336 m; draft 12.1 m.

Type: Other ship. MMSI: 432657000.

Date/timePositionNaut miles runAvg speedWind from/ knotsBaromVisibWave heightAir tempDewpointWater temp
2014-Oct-21 06:30N 36°22' E 014°26'2217.9
2014-Oct-21 05:18N 36°29' E 014°00'1317.8
2014-Oct-21 04:34N 36°33' E 013°45'1817.5
2014-Oct-21 03:31N 36°39' E 013°23'2317.3
2014-Oct-21 02:10N 36°46' E 012°55'16117.8
2014-Oct-20 17:07N 37°49' E 009°49'1017.8
2014-Oct-20 16:33N 37°51' E 009°36'2017.8
2014-Oct-20 15:26N 37°56' E 009°12'1617.9
2014-Oct-20 14:32N 37°59' E 008°52'1818.0
2014-Oct-20 13:31N 38°03' E 008°29'4217.7
2014-Oct-20 11:08N 38°11' E 007°37'1417.7
2014-Oct-20 10:20N 38°14' E 007°19'1417.3
2014-Oct-20 09:33N 38°17' E 007°02'7617.6
2014-Oct-20 05:14N 38°33' E 005°28'1216.9
2014-Oct-20 04:31N 38°35' E 005°13'2217.4
2014-Oct-20 03:14N 38°39' E 004°44'1317.7
2014-Oct-20 02:31N 38°42' E 004°28'3517.9
2014-Oct-20 00:32N 38°50' E 003°44'1818.2
2014-Oct-19 23:33N 38°53' E 003°21'1717.4
2014-Oct-19 22:33N 38°57' E 002°60'1817.5
2014-Oct-19 21:31N 39°01' E 002°37'3417.4
2014-Oct-19 19:34N 39°09' E 001°54'1917.1
2014-Oct-19 18:27N 39°13' E 001°30'2017.6
2014-Oct-19 17:20N 39°15' E 001°05'6416.9
2014-Oct-19 13:33N 39°25' W 000°17'3 2.6
2014-Oct-19 12:32N 39°27' W 000°19'0 0.0
2014-Oct-19 11:32N 39°27' W 000°19'0 0.0
2014-Oct-19 10:32N 39°27' W 000°19'0 0.0
2014-Oct-19 09:32N 39°27' W 000°19'0 0.0
2014-Oct-19 08:32N 39°27' W 000°19'0 0.0
2014-Oct-19 07:32N 39°27' W 000°19'0 0.0
2014-Oct-19 06:32N 39°27' W 000°19'0 0.0
2014-Oct-19 05:32N 39°27' W 000°19'0 0.0
2014-Oct-19 04:32N 39°27' W 000°19'0 0.0
2014-Oct-19 03:32N 39°27' W 000°19'0 0.0
2014-Oct-19 02:32N 39°27' W 000°19'0 0.0
2014-Oct-19 01:32N 39°27' W 000°19'0 0.0
2014-Oct-19 00:32N 39°27' W 000°19'0 0.0
2014-Oct-18 23:32N 39°27' W 000°19'0 0.0
2014-Oct-18 22:32N 39°27' W 000°19'0 0.0
2014-Oct-18 21:32N 39°27' W 000°19'0 0.0
2014-Oct-18 20:32N 39°27' W 000°19'0 0.0
2014-Oct-18 19:32N 39°27' W 000°19'1 1.4
2014-Oct-18 18:33N 39°26' W 000°18'3 3.1
2014-Oct-18 17:33N 39°24' W 000°14'2 1.9
2014-Oct-18 16:33N 39°25' W 000°12'2017.6
2014-Oct-18 15:25N 39°28' E 000°14'1719.9
2014-Oct-18 14:33N 39°36' E 000°33'2220.2
2014-Oct-18 13:30N 39°50' E 000°55'2120.7
2014-Oct-18 12:29N 40°07' E 001°09'2021.3
2014-Oct-18 11:33N 40°24' E 001°24'2121.4
2014-Oct-18 10:34N 40°42' E 001°38'2221.3
2014-Oct-18 09:30N 41°00' E 001°56'2118.0
2014-Oct-18 08:20N 41°18' E 002°10'3 3.5
2014-Oct-18 07:31N 41°21' E 002°10'0 0.0
2014-Oct-18 06:31N 41°21' E 002°10'0 0.0
2014-Oct-18 05:31N 41°21' E 002°10'0 0.0
2014-Oct-18 04:31N 41°21' E 002°10'0 0.0
2014-Oct-18 03:25N 41°21' E 002°10'0 0.0
2014-Oct-18 02:31N 41°21' E 002°10'0 0.0
2014-Oct-18 01:16N 41°21' E 002°10'0 0.0
2014-Oct-18 00:28N 41°21' E 002°10'0 0.0
2014-Oct-17 23:31N 41°21' E 002°10'0 0.0
2014-Oct-17 22:31N 41°21' E 002°10'0 0.0
2014-Oct-17 21:25N 41°21' E 002°10'0 0.0
2014-Oct-17 20:10N 41°21' E 002°10'0 0.0
2014-Oct-17 19:22N 41°21' E 002°10'0 0.0
2014-Oct-17 18:31N 41°21' E 002°10'0 0.0
2014-Oct-17 17:28N 41°21' E 002°10'0 0.0
2014-Oct-17 16:13N 41°21' E 002°10'0 0.0
2014-Oct-17 15:28N 41°21' E 002°10'0 0.0
2014-Oct-17 14:31N 41°21' E 002°10'0 0.0
2014-Oct-17 13:32N 41°21' E 002°10'4 4.2
2014-Oct-17 12:33N 41°17' E 002°12'1 1.0
2014-Oct-17 11:32N 41°17' E 002°13'1212.1
2014-Oct-17 10:33N 41°21' E 002°28'2221.7
2014-Oct-17 09:32N 41°32' E 002°54'2121.5
2014-Oct-17 08:33N 41°45' E 003°16'2221.7
2014-Oct-17 07:33N 42°00' E 003°36'2922.0
2014-Oct-17 06:15N 42°20' E 004°04'3721.8
2014-Oct-17 04:33N 42°49' E 004°36'2121.3
2014-Oct-17 03:33N 43°06' E 004°53'1515.0
2014-Oct-17 02:33N 43°20' E 004°58'7 7.0
2014-Oct-17 01:33N 43°25' E 004°51'0 0.1
2014-Oct-17 00:31N 43°25' E 004°51'0 0.0
2014-Oct-16 23:31N 43°25' E 004°51'0 0.0
2014-Oct-16 22:31N 43°25' E 004°51'0 0.0
2014-Oct-16 21:31N 43°25' E 004°51'0 0.0
2014-Oct-16 20:31N 43°25' E 004°51'0 0.0
2014-Oct-16 19:31N 43°25' E 004°51'0 0.0
2014-Oct-16 18:31N 43°25' E 004°51'0 0.0
2014-Oct-16 17:31N 43°25' E 004°51'0 0.0
2014-Oct-16 16:31N 43°25' E 004°51'0 0.0
2014-Oct-16 15:31N 43°25' E 004°51'0 0.0
2014-Oct-16 14:31N 43°25' E 004°51'0 0.0
2014-Oct-16 13:32N 43°25' E 004°51'0 0.0
2014-Oct-16 12:31N 43°25' E 004°51'0 0.0
2014-Oct-16 11:31N 43°25' E 004°51'0 0.0
2014-Oct-16 10:31N 43°25' E 004°51'0 0.0
2014-Oct-16 09:31N 43°25' E 004°51'0 0.0
2014-Oct-16 08:31N 43°25' E 004°51'0 0.0
2014-Oct-16 07:31N 43°25' E 004°51'0 0.0
2014-Oct-16 06:28N 43°25' E 004°51'0 0.0
2014-Oct-16 05:31N 43°25' E 004°51'0 0.0
2014-Oct-16 04:31N 43°25' E 004°51'0 0.0
2014-Oct-16 03:31N 43°25' E 004°51'0 0.0
2014-Oct-16 02:31N 43°25' E 004°51'0 0.0
2014-Oct-16 01:31N 43°25' E 004°51'0 0.0
2014-Oct-16 00:31N 43°25' E 004°51'0 0.0
2014-Oct-15 23:31N 43°25' E 004°51'0 0.0
2014-Oct-15 22:31N 43°25' E 004°51'0 0.0
2014-Oct-15 21:31N 43°25' E 004°51'0 0.0
2014-Oct-15 20:31N 43°25' E 004°51'0 0.0
2014-Oct-15 19:31N 43°25' E 004°51'0 0.0
2014-Oct-15 18:31N 43°25' E 004°51'0 0.0
2014-Oct-15 17:31N 43°25' E 004°51'0 0.0
2014-Oct-15 16:31N 43°25' E 004°51'0 0.0
2014-Oct-15 15:31N 43°25' E 004°51'0 0.0
2014-Oct-15 14:31N 43°25' E 004°51'0 0.0
2014-Oct-15 13:31N 43°25' E 004°51'0 0.0
2014-Oct-15 12:31N 43°25' E 004°51'0 0.0
2014-Oct-15 11:31N 43°25' E 004°51'0 0.0
2014-Oct-15 10:31N 43°25' E 004°51'0 0.0
2014-Oct-15 09:31N 43°25' E 004°51'0 0.0
2014-Oct-15 08:31N 43°25' E 004°51'0 0.0
2014-Oct-15 07:31N 43°25' E 004°51'0 0.0
2014-Oct-15 06:31N 43°25' E 004°51'0 0.0
2014-Oct-15 05:31N 43°25' E 004°51'0 0.0
2014-Oct-15 04:31N 43°25' E 004°51'0 0.0
2014-Oct-15 03:31N 43°25' E 004°51'0 0.0
2014-Oct-15 02:31N 43°25' E 004°51'0 0.0
2014-Oct-15 01:31N 43°25' E 004°51'0 0.0
2014-Oct-15 00:28N 43°25' E 004°51'0 0.0
2014-Oct-14 23:31N 43°25' E 004°51'0 0.0
2014-Oct-14 22:31N 43°25' E 004°51'0 0.0
2014-Oct-14 21:31N 43°25' E 004°51'0 0.0
2014-Oct-14 20:31N 43°25' E 004°51'0 0.0
2014-Oct-14 19:31N 43°25' E 004°51'0 0.0
2014-Oct-14 18:31N 43°25' E 004°51'0 0.0
2014-Oct-14 17:31N 43°25' E 004°51'0 0.0
2014-Oct-14 16:31N 43°25' E 004°51'0 0.0
2014-Oct-14 15:31N 43°25' E 004°51'0 0.0
2014-Oct-14 14:31N 43°25' E 004°51'0 0.0
2014-Oct-14 13:31N 43°25' E 004°51'0 0.0
2014-Oct-14 12:31N 43°25' E 004°51'0 0.0
2014-Oct-14 11:31N 43°25' E 004°51'0 0.1
2014-Oct-14 10:33N 43°25' E 004°51'5 4.9
2014-Oct-14 09:33N 43°23' E 004°57'8 7.9
2014-Oct-14 08:33N 43°16' E 005°01'1110.7
2014-Oct-14 07:33N 43°06' E 005°08'1312.7
2014-Oct-14 06:33N 43°02' E 005°24'1712.8
2014-Oct-14 05:15N 42°56' E 005°45'912.9
2014-Oct-14 04:33N 42°52' E 005°57'1313.0
2014-Oct-14 03:33N 42°52' E 006°15'1312.9
2014-Oct-14 02:33N 42°53' E 006°32'1313.2
2014-Oct-14 01:33N 43°01' E 006°47'1313.3
2014-Oct-14 00:33N 43°09' E 007°01'1413.4
2014-Oct-13 23:32N 43°18' E 007°16'1413.6
2014-Oct-13 22:32N 43°26' E 007°31'1313.7
2014-Oct-13 21:33N 43°34' E 007°45'3413.7
2014-Oct-13 19:06N 43°55' E 008°22'813.8
2014-Oct-13 18:32N 44°01' E 008°28'1413.9
2014-Oct-13 17:33N 44°13' E 008°38'1312.5
2014-Oct-13 16:31N 44°25' E 008°45'2 1.9
2014-Oct-13 15:33N 44°25' E 008°48'0 0.0
2014-Oct-13 14:33N 44°25' E 008°48'0 0.0
2014-Oct-13 13:33N 44°25' E 008°48'0 0.0
2014-Oct-13 12:33N 44°25' E 008°48'0 0.0
2014-Oct-13 11:33N 44°25' E 008°48'0 0.0
2014-Oct-13 10:33N 44°25' E 008°48'0 0.0
2014-Oct-13 09:33N 44°25' E 008°48'0 0.0
2014-Oct-13 08:33N 44°25' E 008°48'0 0.0
2014-Oct-13 07:33N 44°25' E 008°48'0 0.0
2014-Oct-13 06:33N 44°25' E 008°48'0 0.0
2014-Oct-13 05:33N 44°25' E 008°48'0 0.0
2014-Oct-13 04:32N 44°25' E 008°48'0 0.0
2014-Oct-13 03:33N 44°25' E 008°48'0 0.0
2014-Oct-13 02:33N 44°25' E 008°48'0 0.0
2014-Oct-13 01:33N 44°25' E 008°48'0 0.0
2014-Oct-13 00:33N 44°25' E 008°48'0 0.0
2014-Oct-12 23:33N 44°25' E 008°48'0 0.0
2014-Oct-12 22:33N 44°25' E 008°48'0 0.0
2014-Oct-12 21:33N 44°25' E 008°48'0 0.0
2014-Oct-12 20:31N 44°25' E 008°48'0 0.0
2014-Oct-12 19:32N 44°25' E 008°48'0 0.0
2014-Oct-12 18:33N 44°25' E 008°48'0 0.0
2014-Oct-12 17:33N 44°25' E 008°48'0 0.0
2014-Oct-12 16:33N 44°25' E 008°48'0 0.0
2014-Oct-12 15:32N 44°25' E 008°48'0 0.0
2014-Oct-12 14:32N 44°25' E 008°48'0 0.0
2014-Oct-12 13:32N 44°25' E 008°48'0 0.0
2014-Oct-12 11:05N 44°25' E 008°48'0 0.0
2014-Oct-12 10:27N 44°25' E 008°48'0 0.0
2014-Oct-12 09:33N 44°25' E 008°48'0 0.0
2014-Oct-12 08:33N 44°25' E 008°48'0 0.0
2014-Oct-12 07:33N 44°25' E 008°48'0 0.0
2014-Oct-12 06:33N 44°25' E 008°48'0 0.0
2014-Oct-12 05:33N 44°25' E 008°48'0 0.0
2014-Oct-12 04:32N 44°25' E 008°48'0 0.0
2014-Oct-12 03:33N 44°25' E 008°48'0 0.0
2014-Oct-12 02:33N 44°25' E 008°48'0 0.0
2014-Oct-12 01:33N 44°25' E 008°48'0 0.0
2014-Oct-12 00:33N 44°25' E 008°48'0 0.0
2014-Oct-11 23:33N 44°25' E 008°48'0 0.0
2014-Oct-11 22:33N 44°25' E 008°48'0 0.0
2014-Oct-11 21:33N 44°25' E 008°48'0 0.0
2014-Oct-11 20:33N 44°25' E 008°48'0 0.0
2014-Oct-11 19:33N 44°25' E 008°48'0 0.0
2014-Oct-11 18:33N 44°25' E 008°48'0 0.0
2014-Oct-11 17:32N 44°25' E 008°48'0 0.0
2014-Oct-11 16:33N 44°25' E 008°48'0 0.0
2014-Oct-11 15:33N 44°25' E 008°48'0 0.0
2014-Oct-11 14:33N 44°25' E 008°48'0 0.0
2014-Oct-11 13:33N 44°25' E 008°48'0 0.0
2014-Oct-11 12:33N 44°25' E 008°48'0 0.0
2014-Oct-11 11:33N 44°25' E 008°48'0 0.0
2014-Oct-11 10:33N 44°25' E 008°48'0 0.0
2014-Oct-11 09:33N 44°25' E 008°48'0 0.0
2014-Oct-11 08:33N 44°25' E 008°48'0 0.0
2014-Oct-11 07:33N 44°25' E 008°48'0 0.0
2014-Oct-11 06:32N 44°25' E 008°48'  

Dump ship's entire track history